Time;durP1;ratioP1;P1;durP2;ratioP2;P2;SDS_P1;SDS_P2;PMS_P1;PMS_P2;Temp;Humidity;BMP_temperature;BMP_pressure;BME280_temperature;BME280_humidity;BME280_pressure;Samples;Min_cycle;Max_cycle;Signal;HPM_P1;HPM_P2
2023/03/25 00:01:32;;;;;;;1.83;0.40;;;8.80;99.90;;;;;;5048261;28;20029;-67
2023/03/25 00:04:03;;;;;;;2.38;0.32;;;8.80;99.90;;;;;;5049348;28;20028;-68
2023/03/25 00:06:30;;;;;;;1.50;0.47;;;8.80;99.90;;;;;;5044754;28;20021;-68
2023/03/25 00:08:56;;;;;;;0.93;0.30;;;8.70;99.90;;;;;;5048978;28;20166;-67
2023/03/25 00:11:22;;;;;;;0.80;0.40;;;8.80;99.90;;;;;;5051872;28;20486;-66
2023/03/25 00:13:48;;;;;;;0.50;0.30;;;8.80;99.90;;;;;;5050902;28;20029;-66
2023/03/25 00:16:15;;;;;;;0.80;0.40;;;8.80;99.90;;;;;;5040950;28;20017;-66
2023/03/25 00:18:41;;;;;;;0.70;0.35;;;8.70;99.90;;;;;;5045039;28;20158;-66
2023/03/25 00:21:10;;;;;;;2.20;0.30;;;8.70;99.90;;;;;;5047687;28;20120;-67
2023/03/25 00:23:37;;;;;;;0.73;0.20;;;8.60;99.90;;;;;;5045964;28;20033;-67
2023/03/25 00:26:03;;;;;;;1.88;0.40;;;8.50;99.90;;;;;;5043325;28;20458;-67
2023/03/25 00:28:31;;;;;;;1.15;0.47;;;8.50;99.90;;;;;;5037705;28;20112;-67
2023/03/25 00:31:06;;;;;;;2.80;0.63;;;8.40;99.90;;;;;;5048083;28;20029;-67
2023/03/25 00:33:34;;;;;;;0.60;0.32;;;8.30;99.90;;;;;;5043933;28;20044;-66
2023/03/25 00:36:00;;;;;;;1.17;0.50;;;8.30;99.90;;;;;;5041915;28;20032;-66
2023/03/25 00:38:34;;;;;;;3.63;0.47;;;8.30;99.90;;;;;;5047374;28;20095;-67
2023/03/25 00:41:13;;;;;;;2.65;0.70;;;8.30;99.90;;;;;;5044939;28;20028;-67
2023/03/25 00:43:39;;;;;;;1.92;0.55;;;8.30;99.90;;;;;;5048061;28;20087;-67
2023/03/25 00:46:05;;;;;;;2.35;0.60;;;8.40;99.90;;;;;;5050002;28;20437;-67
2023/03/25 00:48:31;;;;;;;1.67;0.52;;;8.40;99.90;;;;;;5035333;28;20041;-67
2023/03/25 00:50:56;;;;;;;0.82;0.32;;;8.40;99.90;;;;;;5048729;28;20091;-66
2023/03/25 00:53:22;;;;;;;0.88;0.50;;;8.30;99.90;;;;;;5049716;28;20114;-67
2023/03/25 00:55:48;;;;;;;2.90;0.65;;;8.40;99.90;;;;;;5048924;28;20111;-66
2023/03/25 00:58:13;;;;;;;3.20;0.70;;;8.40;99.90;;;;;;5047319;28;20021;-67
2023/03/25 01:00:39;;;;;;;2.40;0.55;;;8.30;99.90;;;;;;5050527;28;20025;-66
2023/03/25 01:03:04;;;;;;;5.07;1.00;;;8.30;99.90;;;;;;5048647;28;20032;-66
2023/03/25 01:05:30;;;;;;;2.63;0.45;;;8.30;99.90;;;;;;5049568;28;20053;-66
2023/03/25 01:07:56;;;;;;;2.20;0.50;;;8.30;99.90;;;;;;5044717;28;20494;-66
2023/03/25 01:10:22;;;;;;;1.67;0.50;;;8.30;99.90;;;;;;5043428;28;20031;-66
2023/03/25 01:12:48;;;;;;;4.32;0.65;;;8.30;99.90;;;;;;5043916;28;20110;-66
2023/03/25 01:15:14;;;;;;;5.10;0.82;;;8.20;99.90;;;;;;5046295;28;20044;-66
2023/03/25 01:17:39;;;;;;;1.60;0.47;;;8.20;99.90;;;;;;5045457;28;20025;-67
2023/03/25 01:20:07;;;;;;;1.75;0.32;;;8.20;99.90;;;;;;5045957;28;20035;-66
2023/03/25 01:22:33;;;;;;;5.18;0.73;;;8.20;99.90;;;;;;5043628;28;20032;-66
2023/03/25 01:24:58;;;;;;;3.78;0.60;;;8.20;99.90;;;;;;5045895;28;20047;-67
2023/03/25 01:27:24;;;;;;;5.57;0.60;;;8.20;99.90;;;;;;5044753;28;20060;-66
2023/03/25 01:29:50;;;;;;;1.65;0.60;;;8.20;99.90;;;;;;5049608;28;20021;-66
2023/03/25 01:32:15;;;;;;;3.53;0.80;;;8.20;99.90;;;;;;5047501;28;20047;-66
2023/03/25 01:34:41;;;;;;;4.05;1.05;;;8.20;99.90;;;;;;5043839;28;20075;-66
2023/03/25 01:37:08;;;;;;;4.90;1.20;;;8.20;99.90;;;;;;5042579;28;20020;-66
2023/03/25 01:39:35;;;;;;;6.88;0.70;;;8.20;99.90;;;;;;5041713;28;20065;-66
2023/03/25 01:42:01;;;;;;;5.18;0.70;;;8.20;99.90;;;;;;5048440;28;20017;-66
2023/03/25 01:44:28;;;;;;;7.47;0.98;;;8.20;99.90;;;;;;5028522;28;20021;-65
2023/03/25 01:46:55;;;;;;;1.73;0.50;;;8.20;99.90;;;;;;5048463;28;20045;-66
2023/03/25 01:49:37;;;;;;;3.13;1.17;;;8.20;99.90;;;;;;5031773;28;20037;-66
2023/03/25 01:52:25;;;;;;;4.82;0.70;;;8.20;99.90;;;;;;5047039;28;20033;-66
2023/03/25 01:54:54;;;;;;;6.75;0.70;;;8.20;99.90;;;;;;5049241;28;20025;-66
2023/03/25 01:57:22;;;;;;;5.10;0.60;;;8.20;99.90;;;;;;5044862;28;20544;-66
2023/03/25 01:59:50;;;;;;;3.97;0.60;;;8.20;99.90;;;;;;5048076;28;20488;-66
2023/03/25 02:02:17;;;;;;;3.67;0.73;;;8.20;99.90;;;;;;5049389;28;20360;-67
2023/03/25 02:04:50;;;;;;;4.40;1.00;;;8.20;99.90;;;;;;5048039;28;20027;-66
2023/03/25 02:07:17;;;;;;;1.95;0.70;;;8.20;99.90;;;;;;5042306;28;20047;-67
2023/03/25 02:09:43;;;;;;;7.93;0.90;;;8.20;99.90;;;;;;5043564;28;20017;-67
2023/03/25 02:12:09;;;;;;;3.55;0.63;;;8.20;99.90;;;;;;5045975;28;20183;-67
2023/03/25 02:14:36;;;;;;;2.20;0.50;;;8.20;99.90;;;;;;5044569;28;20028;-66
2023/03/25 02:17:14;;;;;;;1.88;0.65;;;8.20;99.90;;;;;;5045272;28;20510;-66
2023/03/25 02:20:13;;;;;;;0.80;0.50;;;8.20;99.90;;;;;;5045154;28;20031;-67
2023/03/25 02:22:48;;;;;;;2.85;0.63;;;8.10;99.90;;;;;;5048151;28;20032;-66
2023/03/25 02:25:35;;;;;;;3.15;0.98;;;8.10;99.90;;;;;;5043424;28;20021;-67
2023/03/25 02:28:03;;;;;;;3.90;0.75;;;8.10;99.90;;;;;;5039334;28;20025;-66
2023/03/25 02:31:17;;;;;;;5.07;0.63;;;8.00;99.90;;;;;;5041453;28;20032;-67
2023/03/25 02:34:16;;;;;;;3.10;0.57;;;8.00;99.90;;;;;;5032619;28;20045;-66
2023/03/25 02:37:00;;;;;;;3.22;0.63;;;8.00;99.90;;;;;;5044856;28;20048;-66
2023/03/25 02:39:38;;;;;;;;;;;8.00;99.90;;;;;;5041940;28;20025;-65
2023/03/25 02:42:15;;;;;;;6.50;0.65;;;8.00;99.90;;;;;;5045036;28;20420;-66
2023/03/25 02:44:57;;;;;;;6.90;0.80;;;8.00;99.90;;;;;;5041400;28;20068;-66
2023/03/25 02:47:26;;;;;;;4.15;0.98;;;8.00;99.90;;;;;;5048063;28;20029;-65
2023/03/25 02:49:57;;;;;;;8.40;0.90;;;8.00;99.90;;;;;;5030056;28;20057;-66
2023/03/25 02:52:57;;;;;;;3.40;0.90;;;8.00;99.90;;;;;;5046630;28;20021;-66
2023/03/25 02:55:29;;;;;;;3.10;0.50;;;8.00;99.90;;;;;;5040604;28;20077;-66
2023/03/25 02:57:56;;;;;;;2.67;0.55;;;8.00;99.90;;;;;;5042336;28;20082;-66
2023/03/25 03:00:27;;;;;;;3.13;1.02;;;8.00;99.90;;;;;;5048824;28;20033;-66
2023/03/25 03:03:00;;;;;;;3.85;0.70;;;8.00;99.90;;;;;;5046386;28;20102;-66
2023/03/25 03:05:32;;;;;;;4.20;0.77;;;8.00;99.90;;;;;;5046816;28;20406;-66
2023/03/25 03:08:19;;;;;;;1.75;1.20;;;8.10;99.90;;;;;;5049454;28;20375;-66
2023/03/25 03:11:22;;;;;;;4.40;0.60;;;7.90;99.90;;;;;;5049932;28;20092;-66
2023/03/25 03:14:12;;;;;;;9.43;0.90;;;7.80;99.90;;;;;;5045908;28;20547;-66
2023/03/25 03:16:59;;;;;;;3.00;0.77;;;7.70;99.90;;;;;;5041106;28;20078;-66
2023/03/25 03:19:44;;;;;;;2.15;0.73;;;7.70;99.90;;;;;;5045664;28;20052;-66
2023/03/25 03:22:21;;;;;;;4.30;1.60;;;7.70;99.90;;;;;;5046529;28;20017;-66
2023/03/25 03:25:00;;;;;;;3.40;0.80;;;7.70;99.90;;;;;;5044891;28;20546;-67
2023/03/25 03:27:33;;;;;;;3.05;0.95;;;7.70;99.90;;;;;;5044093;28;20083;-67
2023/03/25 03:30:15;;;;;;;4.65;1.02;;;7.60;99.90;;;;;;5042637;28;20120;-66
2023/03/25 03:32:48;;;;;;;3.42;0.60;;;7.60;99.90;;;;;;5038213;28;20108;-65
2023/03/25 03:36:00;;;;;;;4.00;0.77;;;7.60;99.90;;;;;;5040559;28;20116;-66
2023/03/25 03:38:31;;;;;;;1.92;0.85;;;7.70;99.90;;;;;;5033659;28;20678;-66
2023/03/25 03:41:00;;;;;;;4.22;0.63;;;7.70;99.90;;;;;;5039671;28;20025;-66
2023/03/25 03:43:49;;;;;;;5.30;0.77;;;7.70;99.90;;;;;;5042960;28;20020;-66
2023/03/25 03:46:23;;;;;;;4.22;0.60;;;7.70;99.90;;;;;;5047399;28;20024;-66
2023/03/25 03:48:53;;;;;;;8.52;1.25;;;7.70;99.90;;;;;;5033252;28;20477;-65
2023/03/25 03:51:28;;;;;;;4.50;0.90;;;7.70;99.90;;;;;;5044830;28;20033;-66
2023/03/25 03:53:57;;;;;;;5.30;0.93;;;7.70;99.90;;;;;;5045053;28;20028;-66
2023/03/25 03:56:35;;;;;;;4.70;1.20;;;7.80;99.90;;;;;;5047574;28;20099;-66
2023/03/25 03:59:07;;;;;;;3.60;0.68;;;7.80;99.90;;;;;;5046334;28;20031;-66
2023/03/25 04:01:46;;;;;;;5.20;0.73;;;7.80;99.90;;;;;;5044417;28;20017;-67
2023/03/25 04:04:22;;;;;;;4.80;0.90;;;7.80;99.90;;;;;;5048105;28;20040;-65
2023/03/25 04:06:55;;;;;;;2.22;0.65;;;7.80;99.90;;;;;;5048611;28;20021;-66
2023/03/25 04:09:54;;;;;;;6.93;0.90;;;7.80;99.90;;;;;;5052520;28;20033;-67
2023/03/25 04:12:31;;;;;;;3.33;0.90;;;7.80;99.90;;;;;;5052155;28;20528;-67
2023/03/25 04:15:01;;;;;;;2.22;0.75;;;7.80;99.90;;;;;;5041567;28;20036;-67
2023/03/25 04:17:31;;;;;;;3.38;0.73;;;7.80;99.90;;;;;;5046123;28;20021;-66
2023/03/25 04:20:00;;;;;;;4.28;0.70;;;7.80;99.90;;;;;;5045980;28;21836;-67
2023/03/25 04:22:26;;;;;;;1.67;0.63;;;7.80;99.90;;;;;;5049146;28;20017;-67
2023/03/25 04:24:54;;;;;;;1.38;0.80;;;7.80;99.90;;;;;;5049149;28;20486;-66
2023/03/25 04:27:23;;;;;;;1.80;0.50;;;7.80;99.90;;;;;;5047254;28;20378;-66
2023/03/25 04:29:50;;;;;;;2.70;0.77;;;7.70;99.90;;;;;;5045463;28;20490;-67
2023/03/25 04:32:16;;;;;;;5.07;0.90;;;7.70;99.90;;;;;;5047436;28;20041;-67
2023/03/25 04:34:42;;;;;;;5.35;1.20;;;7.80;99.90;;;;;;5041320;28;20078;-67
2023/03/25 04:37:08;;;;;;;2.78;0.65;;;7.80;99.90;;;;;;5044082;28;20405;-67
2023/03/25 04:39:33;;;;;;;4.35;0.80;;;7.70;99.90;;;;;;5047139;28;20044;-67
2023/03/25 04:42:02;;;;;;;0.60;0.40;;;7.70;99.90;;;;;;5045284;28;20179;-66
2023/03/25 04:44:32;;;;;;;2.65;0.60;;;7.70;99.90;;;;;;5044518;28;20048;-67
2023/03/25 04:46:59;;;;;;;3.50;0.77;;;7.80;99.90;;;;;;5045982;28;20021;-66
2023/03/25 04:49:25;;;;;;;2.25;0.77;;;7.80;99.90;;;;;;5025176;28;20280;-66
2023/03/25 04:51:52;;;;;;;1.73;0.60;;;7.80;99.90;;;;;;5057495;28;20029;-67
2023/03/25 04:54:20;;;;;;;3.55;0.57;;;7.80;99.90;;;;;;5042428;28;20108;-66
2023/03/25 04:56:48;;;;;;;3.58;0.93;;;7.80;99.90;;;;;;5042883;28;20029;-67
2023/03/25 04:59:14;;;;;;;1.58;0.68;;;7.80;99.90;;;;;;5042303;28;20017;-67
2023/03/25 05:01:41;;;;;;;5.95;0.70;;;7.80;99.90;;;;;;5043073;28;20021;-67
2023/03/25 05:04:11;;;;;;;4.97;0.70;;;7.80;99.90;;;;;;5048903;28;20021;-66
2023/03/25 05:06:38;;;;;;;3.35;0.68;;;7.80;99.90;;;;;;5047538;28;20454;-66
2023/03/25 05:09:05;;;;;;;4.50;1.67;;;7.80;99.90;;;;;;5050276;28;20115;-66
2023/03/25 05:11:33;;;;;;;5.97;1.17;;;7.80;99.90;;;;;;5050397;28;20033;-65
2023/03/25 05:13:59;;;;;;;3.80;0.55;;;7.80;99.90;;;;;;5048553;28;20096;-66
2023/03/25 05:16:25;;;;;;;3.72;0.70;;;7.80;99.90;;;;;;5049509;28;20550;-66
2023/03/25 05:18:51;;;;;;;3.67;1.20;;;7.80;99.90;;;;;;5048691;28;20100;-67
2023/03/25 05:21:17;;;;;;;4.80;0.50;;;7.80;99.90;;;;;;5050074;28;20059;-66
2023/03/25 05:23:42;;;;;;;3.35;0.93;;;7.80;99.90;;;;;;5047182;28;20380;-66
2023/03/25 05:26:08;;;;;;;2.22;0.47;;;7.80;99.90;;;;;;5049833;28;20067;-66
2023/03/25 05:28:38;;;;;;;1.58;0.50;;;7.90;99.90;;;;;;5048632;28;20108;-68
2023/03/25 05:31:07;;;;;;;3.88;0.90;;;7.90;99.90;;;;;;5013821;23;20047;-64
2023/03/25 05:33:35;;;;;;;1.90;0.60;;;7.90;99.90;;;;;;4981227;28;20057;-64
2023/03/25 05:36:04;;;;;;;5.20;0.43;;;7.90;99.90;;;;;;4982391;28;20068;-65
2023/03/25 05:38:32;;;;;;;2.42;0.45;;;7.90;99.90;;;;;;4983718;28;20026;-65
2023/03/25 05:40:59;;;;;;;2.85;0.73;;;7.90;99.90;;;;;;4972654;28;20022;-66
2023/03/25 05:43:24;;;;;;;7.13;0.70;;;7.90;99.90;;;;;;4980381;28;20029;-63
2023/03/25 05:45:50;;;;;;;4.95;0.93;;;7.90;99.90;;;;;;4980376;28;20031;-65
2023/03/25 05:48:15;;;;;;;4.43;0.63;;;7.90;99.90;;;;;;4979876;28;20148;-64
2023/03/25 05:50:45;;;;;;;3.25;0.70;;;7.90;99.90;;;;;;4961680;27;20095;-64
2023/03/25 05:53:14;;;;;;;2.63;0.75;;;7.90;99.90;;;;;;4964194;28;20026;-65
2023/03/25 05:55:39;;;;;;;1.85;0.65;;;8.00;99.90;;;;;;4966856;28;20519;-65
2023/03/25 05:58:05;;;;;;;7.65;0.73;;;8.00;99.90;;;;;;4968810;28;20059;-64
2023/03/25 06:00:31;;;;;;;6.35;1.08;;;8.00;99.90;;;;;;4968301;28;20034;-64
2023/03/25 06:02:58;;;;;;;1.95;0.73;;;8.00;99.90;;;;;;4966143;28;20061;-65
2023/03/25 06:05:24;;;;;;;7.75;1.00;;;8.00;99.90;;;;;;4996289;28;20042;-64
2023/03/25 06:07:54;;;;;;;9.68;0.90;;;8.10;99.90;;;;;;4974532;28;20476;-64
2023/03/25 06:10:21;;;;;;;6.63;0.80;;;8.10;99.90;;;;;;4966397;28;20054;-64
2023/03/25 06:12:48;;;;;;;4.38;0.75;;;8.10;99.90;;;;;;4969813;28;20027;-64
2023/03/25 06:15:32;;;;;;;4.13;0.40;;;8.00;99.90;;;;;;4970443;28;20079;-65
2023/03/25 06:17:58;;;;;;;3.47;0.65;;;8.10;99.90;;;;;;4967766;28;20030;-65
2023/03/25 06:20:24;;;;;;;4.88;0.80;;;8.10;99.90;;;;;;4982368;28;20032;-65
2023/03/25 06:22:50;;;;;;;4.85;0.80;;;8.10;99.90;;;;;;4969829;28;20030;-65
2023/03/25 06:25:19;;;;;;;13.13;2.58;;;8.20;99.90;;;;;;4966243;28;20065;-65
2023/03/25 06:27:48;;;;;;;3.53;0.55;;;8.20;99.90;;;;;;4987838;28;20088;-66
2023/03/25 06:30:16;;;;;;;4.78;0.60;;;8.20;99.90;;;;;;4963981;28;20060;-65
2023/03/25 06:32:41;;;;;;;4.38;0.85;;;8.30;99.90;;;;;;4970631;28;20027;-64
2023/03/25 06:35:08;;;;;;;5.03;2.03;;;8.30;99.90;;;;;;4978049;28;20076;-66
2023/03/25 06:37:35;;;;;;;6.65;0.80;;;8.40;99.90;;;;;;4987268;28;20085;-65
2023/03/25 06:40:01;;;;;;;2.45;0.75;;;8.40;99.90;;;;;;4966771;28;20027;-64
2023/03/25 06:42:27;;;;;;;9.95;1.30;;;8.40;99.90;;;;;;5007746;28;20024;-66
2023/03/25 06:44:54;;;;;;;2.50;0.70;;;8.40;99.90;;;;;;4978996;28;20153;-63
2023/03/25 06:47:20;;;;;;;10.38;1.10;;;8.40;99.90;;;;;;4997152;28;20541;-65
2023/03/25 06:49:46;;;;;;;8.20;1.95;;;8.30;99.90;;;;;;4949025;28;20046;-63
2023/03/25 06:52:11;;;;;;;2.67;0.80;;;8.40;99.90;;;;;;4980170;28;20140;-63
2023/03/25 06:54:38;;;;;;;2.03;0.63;;;8.40;99.90;;;;;;4967193;28;20038;-65
2023/03/25 06:57:04;;;;;;;2.17;0.73;;;8.40;99.90;;;;;;5005777;28;20029;-65
2023/03/25 06:59:31;;;;;;;3.47;0.90;;;8.40;99.90;;;;;;4971872;28;20053;-64
2023/03/25 07:01:57;;;;;;;9.35;1.17;;;8.40;99.90;;;;;;4990134;28;20074;-65
2023/03/25 07:04:22;;;;;;;7.68;1.33;;;8.50;99.90;;;;;;4994654;28;20023;-65
2023/03/25 07:06:48;;;;;;;4.20;0.70;;;8.50;99.90;;;;;;4974952;28;20065;-65
2023/03/25 07:09:14;;;;;;;6.50;1.63;;;8.60;99.90;;;;;;4962019;28;20026;-64
2023/03/25 07:11:40;;;;;;;3.70;1.17;;;8.70;99.90;;;;;;4964789;28;20037;-63
2023/03/25 07:14:05;;;;;;;4.70;1.35;;;8.80;99.90;;;;;;4966619;28;20308;-65
2023/03/25 07:16:31;;;;;;;9.60;2.05;;;8.80;99.90;;;;;;4967064;28;20019;-64
2023/03/25 07:18:57;;;;;;;13.95;2.83;;;8.80;99.90;;;;;;4967307;28;20037;-65
2023/03/25 07:21:23;;;;;;;6.32;2.05;;;8.70;99.90;;;;;;4967473;28;20022;-64
2023/03/25 07:23:49;;;;;;;9.50;1.55;;;8.60;99.90;;;;;;4966408;28;20035;-65
2023/03/25 07:26:15;;;;;;;14.38;3.05;;;8.50;99.90;;;;;;4965709;28;20484;-64
2023/03/25 07:28:41;;;;;;;14.35;3.40;;;8.30;99.90;;;;;;4966314;28;20045;-65
2023/03/25 07:31:08;;;;;;;10.40;1.92;;;8.30;99.90;;;;;;4968614;28;20590;-65
2023/03/25 07:33:34;;;;;;;6.28;1.30;;;8.20;99.90;;;;;;4967114;28;20119;-65
2023/03/25 07:36:00;;;;;;;6.68;0.90;;;8.20;99.90;;;;;;4978665;28;20541;-66
2023/03/25 07:38:25;;;;;;;4.03;0.60;;;8.20;99.90;;;;;;4965374;28;20047;-65
2023/03/25 07:40:51;;;;;;;7.25;1.00;;;8.20;99.90;;;;;;4979504;28;20034;-63
2023/03/25 07:43:16;;;;;;;2.42;1.08;;;8.20;99.90;;;;;;5009015;28;20039;-65
2023/03/25 07:45:42;;;;;;;4.22;0.98;;;8.30;99.90;;;;;;5012125;28;20034;-66
2023/03/25 07:48:13;;;;;;;6.70;0.88;;;8.40;99.90;;;;;;5003452;28;20033;-65
2023/03/25 07:50:40;;;;;;;4.38;1.05;;;8.50;99.90;;;;;;4949450;28;20109;-65
2023/03/25 07:53:06;;;;;;;3.38;0.73;;;8.60;99.90;;;;;;4989657;28;20049;-64
2023/03/25 07:55:31;;;;;;;4.32;1.17;;;8.80;99.90;;;;;;4969409;28;20467;-65
2023/03/25 07:57:59;;;;;;;5.88;0.85;;;8.70;99.90;;;;;;4969205;28;20105;-64
2023/03/25 08:00:25;;;;;;;2.10;0.88;;;8.60;99.90;;;;;;4982467;28;20024;-65
2023/03/25 08:02:51;;;;;;;3.90;0.80;;;8.50;99.90;;;;;;4989518;28;20030;-65
2023/03/25 08:05:20;;;;;;;4.25;0.88;;;8.40;99.90;;;;;;5014804;28;20425;-65
2023/03/25 08:07:49;;;;;;;7.47;0.82;;;8.40;99.90;;;;;;4969147;28;20030;-65
2023/03/25 08:10:15;;;;;;;3.85;0.80;;;8.50;99.90;;;;;;4969795;28;20481;-65
2023/03/25 08:12:42;;;;;;;5.65;0.80;;;8.50;99.90;;;;;;4970844;28;20051;-65
2023/03/25 08:15:10;;;;;;;2.58;0.60;;;8.50;99.90;;;;;;4974635;28;20019;-65
2023/03/25 08:17:36;;;;;;;4.90;0.75;;;8.60;99.90;;;;;;4982018;28;20035;-65
2023/03/25 08:20:03;;;;;;;5.20;1.38;;;8.60;99.90;;;;;;4996167;28;20572;-65
2023/03/25 08:22:29;;;;;;;4.72;0.73;;;8.70;99.90;;;;;;4992549;28;20478;-65
2023/03/25 08:24:55;;;;;;;4.15;1.38;;;8.80;99.90;;;;;;4991590;28;20035;-65
2023/03/25 08:27:21;;;;;;;4.72;0.60;;;8.80;99.90;;;;;;4982088;28;20021;-64
2023/03/25 08:29:53;;;;;;;6.10;0.85;;;8.80;99.90;;;;;;4981484;28;20027;-65
2023/03/25 08:32:20;;;;;;;6.28;1.45;;;8.90;99.90;;;;;;4978288;28;20104;-65
2023/03/25 08:34:46;;;;;;;5.68;0.47;;;8.80;99.90;;;;;;4984632;28;20423;-65
2023/03/25 08:37:14;;;;;;;3.83;0.73;;;8.90;99.90;;;;;;5002394;28;20033;-64
2023/03/25 08:39:40;;;;;;;4.03;1.48;;;8.80;99.90;;;;;;4968458;28;20373;-64
2023/03/25 08:42:07;;;;;;;3.15;0.65;;;8.80;99.90;;;;;;5005281;28;20080;-64
2023/03/25 08:44:34;;;;;;;2.72;0.68;;;8.90;99.90;;;;;;5006702;28;20032;-65
2023/03/25 08:47:00;;;;;;;2.58;0.60;;;8.90;99.90;;;;;;5007231;28;20109;-65
2023/03/25 08:49:25;;;;;;;5.90;1.23;;;9.20;99.90;;;;;;4972896;28;20118;-65
2023/03/25 08:51:51;;;;;;;3.20;0.95;;;9.80;99.90;;;;;;4981434;28;20044;-65
2023/03/25 08:54:17;;;;;;;1.65;0.85;;;10.60;99.90;;;;;;4996421;28;20033;-66
2023/03/25 08:56:42;;;;;;;3.92;0.75;;;11.10;99.90;;;;;;4968070;28;20472;-65
2023/03/25 08:59:08;;;;;;;4.80;1.60;;;11.10;99.90;;;;;;4986490;28;20030;-64
2023/03/25 09:01:34;;;;;;;2.50;1.20;;;11.20;99.90;;;;;;4986710;28;20543;-65
2023/03/25 09:03:59;;;;;;;4.72;1.23;;;11.20;99.90;;;;;;4967127;28;20035;-64
2023/03/25 09:06:25;;;;;;;4.88;0.77;;;10.70;99.90;;;;;;4969259;28;20385;-64
2023/03/25 09:08:51;;;;;;;2.15;0.95;;;10.60;99.90;;;;;;4966139;28;20027;-64
2023/03/25 09:11:17;;;;;;;4.20;1.63;;;10.40;99.90;;;;;;4969780;28;20026;-65
2023/03/25 09:13:42;;;;;;;7.85;0.95;;;10.10;99.90;;;;;;4978623;28;20025;-65
2023/03/25 09:16:08;;;;;;;3.85;1.13;;;9.90;99.90;;;;;;4970203;28;20105;-65
2023/03/25 09:18:35;;;;;;;4.38;1.23;;;9.90;99.90;;;;;;4966881;28;20055;-65
2023/03/25 09:21:01;;;;;;;4.15;1.45;;;9.80;99.90;;;;;;4973531;28;20413;-64
2023/03/25 09:23:27;;;;;;;3.47;0.70;;;9.80;99.90;;;;;;4975028;28;20041;-65
2023/03/25 09:25:53;;;;;;;5.95;1.05;;;9.70;99.90;;;;;;4983472;28;20027;-66
2023/03/25 09:28:19;;;;;;;5.18;1.58;;;9.70;99.90;;;;;;4986606;28;20062;-65
2023/03/25 09:30:45;;;;;;;4.05;1.40;;;9.80;99.90;;;;;;4970185;28;20031;-65
2023/03/25 09:33:11;;;;;;;8.35;1.40;;;9.70;99.90;;;;;;4969141;28;20080;-65
2023/03/25 09:35:38;;;;;;;4.43;1.33;;;9.80;99.90;;;;;;4969032;28;20029;-65
2023/03/25 09:38:04;;;;;;;11.65;1.65;;;9.80;99.90;;;;;;4977384;28;20468;-64
2023/03/25 09:40:30;;;;;;;6.10;1.45;;;9.80;99.90;;;;;;4966370;28;20110;-65
2023/03/25 09:43:05;;;;;;;2.85;0.95;;;9.90;99.90;;;;;;4968120;28;20030;-65
2023/03/25 09:45:41;;;;;;;11.45;1.92;;;9.90;99.90;;;;;;4965858;28;20026;-65
2023/03/25 09:48:23;;;;;;;8.27;1.38;;;10.00;99.90;;;;;;4969849;28;20027;-65
2023/03/25 09:50:48;;;;;;;17.52;2.53;;;10.20;99.90;;;;;;4940880;28;20121;-65
2023/03/25 09:53:22;;;;;;;7.30;1.33;;;10.30;99.90;;;;;;4965046;28;20107;-65
2023/03/25 09:55:48;;;;;;;3.38;1.15;;;10.40;99.90;;;;;;4959023;28;20035;-65
2023/03/25 09:58:32;;;;;;;8.38;1.38;;;10.30;99.90;;;;;;4986118;28;20039;-65
2023/03/25 10:01:01;;;;;;;5.47;1.33;;;10.30;99.90;;;;;;4995605;28;20026;-65
2023/03/25 10:04:04;;;;;;;7.00;1.33;;;10.50;99.90;;;;;;4971244;28;20035;-65
2023/03/25 10:06:36;;;;;;;10.25;1.52;;;10.80;99.90;;;;;;4968604;28;20023;-65
2023/03/25 10:09:43;;;;;;;4.05;1.50;;;11.00;99.90;;;;;;4974852;28;20038;-65
2023/03/25 10:12:32;;;;;;;10.32;1.55;;;11.00;99.90;;;;;;4977007;28;20504;-65
2023/03/25 10:15:18;;;;;;;6.35;1.70;;;11.00;99.90;;;;;;4998917;28;20035;-64
2023/03/25 10:18:03;;;;;;;9.43;1.38;;;11.00;99.90;;;;;;4967771;28;20512;-63
2023/03/25 10:20:29;;;;;;;8.70;1.92;;;11.10;99.90;;;;;;4966857;28;20034;-65
2023/03/25 10:23:03;;;;;;;9.55;2.67;;;11.40;99.90;;;;;;4997164;28;20909;-65
2023/03/25 10:25:37;;;;;;;6.88;1.30;;;11.80;99.90;;;;;;4965131;28;20046;-65
2023/03/25 10:28:05;;;;;;;9.10;1.77;;;12.00;99.90;;;;;;4962313;28;20042;-65
2023/03/25 10:30:42;;;;;;;5.90;1.58;;;11.90;99.90;;;;;;4989020;28;20024;-66
2023/03/25 10:33:22;;;;;;;7.85;1.35;;;11.90;99.90;;;;;;4966123;28;20026;-66
2023/03/25 10:35:48;;;;;;;6.97;1.13;;;11.60;99.90;;;;;;4986227;28;20023;-64
2023/03/25 10:38:23;;;;;;;11.73;1.85;;;11.40;99.90;;;;;;5004868;28;20045;-64
2023/03/25 10:41:12;;;;;;;2.70;0.90;;;11.40;99.90;;;;;;4980458;28;20027;-65
2023/03/25 10:43:40;;;;;;;3.72;1.25;;;11.30;99.90;;;;;;4982608;28;20061;-64
2023/03/25 10:46:25;;;;;;;3.55;1.77;;;11.40;99.90;;;;;;4965957;28;20038;-64
2023/03/25 10:48:51;;;;;;;8.05;1.75;;;11.50;99.90;;;;;;4962880;28;20033;-65
2023/03/25 10:51:24;;;;;;;9.23;1.48;;;10.70;99.90;;;;;;4981966;28;20055;-65
2023/03/25 10:53:51;;;;;;;8.25;1.45;;;10.20;99.90;;;;;;4968507;28;20392;-65
2023/03/25 10:56:50;;;;;;;8.55;1.50;;;10.00;99.90;;;;;;5034764;28;20029;-65
2023/03/25 10:59:26;;;;;;;6.55;1.45;;;10.00;99.90;;;;;;5005597;28;20035;-65
2023/03/25 11:01:53;;;;;;;6.18;2.10;;;10.10;99.90;;;;;;4966921;28;20089;-66
2023/03/25 11:04:21;;;;;;;5.63;1.65;;;10.40;99.90;;;;;;4983147;28;20023;-65
2023/03/25 11:06:54;;;;;;;8.43;1.30;;;10.50;99.90;;;;;;4965713;28;20030;-64
2023/03/25 11:09:31;;;;;;;3.83;1.25;;;10.60;99.90;;;;;;4966231;28;20050;-64
2023/03/25 11:12:03;;;;;;;14.27;4.13;;;10.70;99.90;;;;;;4967679;28;20030;-64
2023/03/25 11:14:29;;;;;;;8.18;2.47;;;10.80;99.90;;;;;;4967136;28;20031;-66
2023/03/25 11:16:59;;;;;;;66.10;22.00;;;10.90;99.90;;;;;;4969224;28;20099;-65
2023/03/25 11:19:40;;;;;;;13.35;3.83;;;11.00;99.90;;;;;;4970754;28;20063;-66
2023/03/25 11:22:23;;;;;;;6.00;2.25;;;11.00;99.90;;;;;;4963058;28;20026;-64
2023/03/25 11:24:56;;;;;;;4.18;1.05;;;10.70;99.90;;;;;;4976617;28;20096;-65
2023/03/25 11:27:25;;;;;;;12.20;1.70;;;10.20;99.90;;;;;;4973508;28;20039;-65
2023/03/25 11:29:54;;;;;;;11.68;1.50;;;9.90;99.90;;;;;;4970253;28;20027;-64
2023/03/25 11:32:34;;;;;;;8.05;1.10;;;9.70;99.90;;;;;;5015808;23;20040;-66
2023/03/25 11:35:15;;;;;;;6.97;1.55;;;9.80;99.90;;;;;;5046716;28;20021;-64
2023/03/25 11:37:46;;;;;;;9.00;2.10;;;9.90;99.90;;;;;;5043198;28;20025;-66
2023/03/25 11:40:15;;;;;;;9.10;1.38;;;10.00;99.90;;;;;;5048239;28;20052;-66
2023/03/25 11:42:48;;;;;;;7.80;1.60;;;10.20;99.90;;;;;;5046717;28;20029;-65
2023/03/25 11:45:23;;;;;;;12.45;2.13;;;10.30;99.90;;;;;;5051465;28;20433;-66
2023/03/25 11:47:50;;;;;;;5.53;1.30;;;10.60;99.90;;;;;;5045798;28;20053;-66
2023/03/25 11:50:24;;;;;;;9.13;1.92;;;10.70;99.90;;;;;;5051564;28;20013;-66
2023/03/25 11:52:57;;;;;;;14.05;2.78;;;11.00;99.90;;;;;;5037250;28;20037;-66
2023/03/25 11:55:22;;;;;;;7.10;1.60;;;10.70;99.90;;;;;;5052413;28;20032;-65
2023/03/25 11:57:50;;;;;;;12.63;3.47;;;10.60;99.90;;;;;;5052065;28;20036;-65
2023/03/25 12:00:47;;;;;;;6.07;1.00;;;10.60;99.90;;;;;;5051211;28;20041;-66
2023/03/25 12:03:13;;;;;;;4.00;0.90;;;10.40;99.90;;;;;;5036831;28;20029;-67
2023/03/25 12:05:40;;;;;;;7.07;3.00;;;10.30;99.90;;;;;;5066167;28;20035;-66
2023/03/25 12:08:08;;;;;;;4.85;1.48;;;10.40;99.90;;;;;;5049820;28;20142;-66
2023/03/25 12:10:54;;;;;;;7.13;1.20;;;10.60;99.90;;;;;;5050241;28;20025;-66
2023/03/25 12:13:25;;;;;;;9.25;1.52;;;10.80;99.90;;;;;;5048784;28;20021;-65
2023/03/25 12:16:09;;;;;;;7.63;1.27;;;10.90;99.90;;;;;;5047546;28;20056;-65
2023/03/25 12:18:58;;;;;;;4.10;1.10;;;11.00;99.90;;;;;;5047619;28;20040;-66
2023/03/25 12:21:46;;;;;;;5.95;1.20;;;11.00;99.90;;;;;;5048767;28;20021;-66
2023/03/25 12:24:43;;;;;;;10.93;2.45;;;11.10;99.90;;;;;;5040606;28;20040;-66
2023/03/25 12:27:18;;;;;;;8.27;1.35;;;11.10;99.90;;;;;;5040715;28;20048;-65
2023/03/25 12:30:02;;;;;;;3.22;1.10;;;11.30;99.90;;;;;;5049321;28;20039;-65
2023/03/25 12:32:48;;;;;;;7.93;1.27;;;11.30;99.90;;;;;;5051320;28;20021;-66
2023/03/25 12:35:19;;;;;;;4.25;1.40;;;11.40;99.90;;;;;;5043144;28;20083;-66
2023/03/25 12:38:13;;;;;;;3.97;1.33;;;11.40;99.90;;;;;;5048320;28;20025;-66
2023/03/25 12:40:57;;;;;;;7.40;1.58;;;11.60;99.90;;;;;;5045588;28;20021;-66
2023/03/25 12:43:34;;;;;;;10.32;1.67;;;11.70;99.90;;;;;;5042286;28;20155;-67
2023/03/25 12:46:20;;;;;;;4.75;1.13;;;11.80;99.90;;;;;;5046163;28;20017;-66
2023/03/25 12:49:04;;;;;;;3.85;1.80;;;11.70;99.90;;;;;;5046671;28;20066;-66
2023/03/25 12:51:43;;;;;;;7.25;2.03;;;11.80;99.90;;;;;;5035931;28;20067;-65
2023/03/25 12:54:37;;;;;;;15.50;2.92;;;11.90;99.90;;;;;;5045838;28;20061;-66
2023/03/25 12:57:35;;;;;;;8.85;1.65;;;11.90;99.90;;;;;;5049473;28;20044;-65
2023/03/25 13:00:30;;;;;;;10.38;2.55;;;11.90;99.90;;;;;;5046024;28;20029;-66
2023/03/25 13:03:20;;;;;;;7.18;1.75;;;12.20;99.90;;;;;;5040905;28;20033;-65
2023/03/25 13:06:13;;;;;;;7.00;1.45;;;12.30;99.90;;;;;;5046843;28;20021;-66
2023/03/25 13:09:01;;;;;;;7.93;1.55;;;12.40;99.90;;;;;;5045649;28;20149;-66
2023/03/25 13:11:32;;;;;;;5.82;1.40;;;12.60;99.90;;;;;;5049348;28;20028;-67
2023/03/25 13:14:03;;;;;;;7.65;1.30;;;12.60;99.90;;;;;;5048887;28;20032;-66
2023/03/25 13:16:31;;;;;;;4.53;1.38;;;12.60;99.90;;;;;;5048976;28;20100;-67